sensor_id;sensor_type;location;lat;lon;timestamp;pressure;altitude;pressure_sealevel;temperature;humidity
60417;BME280;46263;44.726;10.396;2022-12-18T00:01:30;101665.94;;;9.52;72.59
60417;BME280;46263;44.726;10.396;2022-12-18T00:03:57;101664.00;;;9.58;72.35
60417;BME280;46263;44.726;10.396;2022-12-18T00:06:24;101659.66;;;9.57;72.24
60417;BME280;46263;44.726;10.396;2022-12-18T00:08:50;101657.72;;;9.63;72.11
60417;BME280;46263;44.726;10.396;2022-12-18T00:11:21;101655.63;;;9.58;72.15
60417;BME280;46263;44.726;10.396;2022-12-18T00:13:47;101660.81;;;9.65;71.91
60417;BME280;46263;44.726;10.396;2022-12-18T00:16:19;101667.91;;;9.66;71.99
60417;BME280;46263;44.726;10.396;2022-12-18T00:18:46;101678.13;;;9.69;71.84
60417;BME280;46263;44.726;10.396;2022-12-18T00:21:13;101677.13;;;9.72;72.12
60417;BME280;46263;44.726;10.396;2022-12-18T00:23:40;101687.56;;;9.71;71.77
60417;BME280;46263;44.726;10.396;2022-12-18T00:26:13;101683.13;;;9.65;72.00
60417;BME280;46263;44.726;10.396;2022-12-18T00:28:40;101687.56;;;9.71;71.61
60417;BME280;46263;44.726;10.396;2022-12-18T00:31:18;101682.44;;;9.70;71.96
60417;BME280;46263;44.726;10.396;2022-12-18T00:33:44;101681.69;;;9.69;71.98
60417;BME280;46263;44.726;10.396;2022-12-18T00:36:12;101687.75;;;9.68;72.24
60417;BME280;46263;44.726;10.396;2022-12-18T00:38:39;101680.78;;;9.78;71.87
60417;BME280;46263;44.726;10.396;2022-12-18T00:41:06;101685.69;;;9.83;71.81
60417;BME280;46263;44.726;10.396;2022-12-18T00:43:33;101686.09;;;9.76;71.56
60417;BME280;46263;44.726;10.396;2022-12-18T00:45:59;101690.91;;;9.75;71.88
60417;BME280;46263;44.726;10.396;2022-12-18T00:48:24;101680.31;;;9.79;71.58
60417;BME280;46263;44.726;10.396;2022-12-18T00:50:50;101686.16;;;9.81;71.45
60417;BME280;46263;44.726;10.396;2022-12-18T00:53:16;101681.16;;;9.85;71.66
60417;BME280;46263;44.726;10.396;2022-12-18T00:55:42;101676.63;;;9.88;71.49
60417;BME280;46263;44.726;10.396;2022-12-18T00:58:09;101681.25;;;9.91;71.28
60417;BME280;46263;44.726;10.396;2022-12-18T01:00:34;101681.53;;;9.93;71.44
60417;BME280;46263;44.726;10.396;2022-12-18T01:03:00;101684.59;;;9.95;71.62
60417;BME280;46263;44.726;10.396;2022-12-18T01:05:25;101685.00;;;9.88;71.09
60417;BME280;46263;44.726;10.396;2022-12-18T01:07:51;101684.03;;;9.91;71.47
60417;BME280;46263;44.726;10.396;2022-12-18T01:10:16;101682.19;;;9.88;71.34
60417;BME280;46263;44.726;10.396;2022-12-18T01:12:42;101688.06;;;9.90;71.30
60417;BME280;46263;44.726;10.396;2022-12-18T01:15:08;101691.16;;;9.92;71.15
60417;BME280;46263;44.726;10.396;2022-12-18T01:17:34;101698.00;;;9.91;71.04
60417;BME280;46263;44.726;10.396;2022-12-18T01:19:59;101691.16;;;9.92;71.19
60417;BME280;46263;44.726;10.396;2022-12-18T01:22:25;101694.41;;;9.90;71.40
60417;BME280;46263;44.726;10.396;2022-12-18T01:24:50;101701.06;;;9.93;71.58
60417;BME280;46263;44.726;10.396;2022-12-18T01:27:16;101695.50;;;9.93;71.61
60417;BME280;46263;44.726;10.396;2022-12-18T01:29:41;101704.81;;;9.90;71.86
60417;BME280;46263;44.726;10.396;2022-12-18T01:32:08;101707.91;;;9.92;71.64
60417;BME280;46263;44.726;10.396;2022-12-18T01:34:35;101711.16;;;9.90;71.78
60417;BME280;46263;44.726;10.396;2022-12-18T01:37:05;101711.66;;;9.89;71.82
60417;BME280;46263;44.726;10.396;2022-12-18T01:39:31;101721.69;;;9.81;71.56
60417;BME280;46263;44.726;10.396;2022-12-18T01:41:58;101716.59;;;9.79;71.69
60417;BME280;46263;44.726;10.396;2022-12-18T01:44:56;101724.06;;;9.88;71.63
60417;BME280;46263;44.726;10.396;2022-12-18T01:50:10;101731.13;;;9.83;71.67
60417;BME280;46263;44.726;10.396;2022-12-18T01:52:37;101730.06;;;9.81;71.75
60417;BME280;46263;44.726;10.396;2022-12-18T01:55:04;101736.75;;;9.69;71.97
60417;BME280;46263;44.726;10.396;2022-12-18T01:57:30;101745.56;;;9.67;72.21
60417;BME280;46263;44.726;10.396;2022-12-18T01:59:59;101746.63;;;9.70;72.02
60417;BME280;46263;44.726;10.396;2022-12-18T02:02:29;101758.28;;;9.68;72.17
60417;BME280;46263;44.726;10.396;2022-12-18T02:04:55;101757.13;;;9.75;71.83
60417;BME280;46263;44.726;10.396;2022-12-18T02:10:25;101775.31;;;9.70;71.87
60417;BME280;46263;44.726;10.396;2022-12-18T02:13:25;101779.19;;;9.44;72.15
60417;BME280;46263;44.726;10.396;2022-12-18T02:16:21;101787.84;;;9.32;72.98
60417;BME280;46263;44.726;10.396;2022-12-18T02:18:55;101788.56;;;9.18;73.83
60417;BME280;46263;44.726;10.396;2022-12-18T02:24:41;101796.94;;;9.18;74.00
60417;BME280;46263;44.726;10.396;2022-12-18T02:27:06;101795.59;;;9.28;73.50
60417;BME280;46263;44.726;10.396;2022-12-18T02:29:37;101794.78;;;9.36;73.13
60417;BME280;46263;44.726;10.396;2022-12-18T02:32:07;101798.63;;;9.39;72.91
60417;BME280;46263;44.726;10.396;2022-12-18T02:34:37;101792.06;;;9.42;73.12
60417;BME280;46263;44.726;10.396;2022-12-18T02:37:05;101805.25;;;9.41;72.92
60417;BME280;46263;44.726;10.396;2022-12-18T02:39:34;101804.31;;;9.44;72.99
60417;BME280;46263;44.726;10.396;2022-12-18T02:42:01;101805.53;;;9.43;72.95
60417;BME280;46263;44.726;10.396;2022-12-18T02:44:33;101799.28;;;9.48;72.78
60417;BME280;46263;44.726;10.396;2022-12-18T02:46:59;101800.53;;;9.47;72.93
60417;BME280;46263;44.726;10.396;2022-12-18T02:57:37;101787.56;;;9.44;72.86
60417;BME280;46263;44.726;10.396;2022-12-18T03:00:06;101782.25;;;9.46;72.91
60417;BME280;46263;44.726;10.396;2022-12-18T03:05:12;101801.50;;;9.44;72.86
60417;BME280;46263;44.726;10.396;2022-12-18T03:07:44;101796.69;;;9.45;72.62
60417;BME280;46263;44.726;10.396;2022-12-18T03:10:16;101801.78;;;9.46;72.50
60417;BME280;46263;44.726;10.396;2022-12-18T03:12:49;101814.66;;;9.44;72.70
60417;BME280;46263;44.726;10.396;2022-12-18T03:15:21;101812.38;;;9.42;72.52
60417;BME280;46263;44.726;10.396;2022-12-18T03:17:54;101809.47;;;9.37;72.76
60417;BME280;46263;44.726;10.396;2022-12-18T03:20:23;101821.38;;;9.37;72.28
60417;BME280;46263;44.726;10.396;2022-12-18T03:22:54;101824.19;;;9.37;72.55
60417;BME280;46263;44.726;10.396;2022-12-18T03:25:23;101819.75;;;9.31;72.09
60417;BME280;46263;44.726;10.396;2022-12-18T03:27:54;101822.38;;;9.34;71.79
60417;BME280;46263;44.726;10.396;2022-12-18T03:30:21;101819.19;;;9.41;71.09
60417;BME280;46263;44.726;10.396;2022-12-18T03:32:51;101830.94;;;9.45;70.97
60417;BME280;46263;44.726;10.396;2022-12-18T03:35:26;101828.13;;;9.45;70.53
60417;BME280;46263;44.726;10.396;2022-12-18T03:37:54;101830.66;;;9.43;70.78
60417;BME280;46263;44.726;10.396;2022-12-18T03:40:24;101833.72;;;9.45;70.32
60417;BME280;46263;44.726;10.396;2022-12-18T03:42:59;101840.06;;;9.31;70.58
60417;BME280;46263;44.726;10.396;2022-12-18T03:45:55;101832.94;;;9.30;71.20
60417;BME280;46263;44.726;10.396;2022-12-18T03:48:48;101826.47;;;9.24;71.05
60417;BME280;46263;44.726;10.396;2022-12-18T03:53:59;101832.81;;;9.10;71.38
60417;BME280;46263;44.726;10.396;2022-12-18T03:56:33;101844.25;;;9.12;71.36
60417;BME280;46263;44.726;10.396;2022-12-18T03:59:02;101851.53;;;9.10;71.01
60417;BME280;46263;44.726;10.396;2022-12-18T04:01:32;101859.13;;;9.09;71.12
60417;BME280;46263;44.726;10.396;2022-12-18T04:04:00;101868.22;;;8.95;71.37
60417;BME280;46263;44.726;10.396;2022-12-18T04:06:28;101874.09;;;8.97;71.35
60417;BME280;46263;44.726;10.396;2022-12-18T04:08:56;101878.28;;;8.93;71.34
60417;BME280;46263;44.726;10.396;2022-12-18T04:11:22;101882.50;;;8.88;71.53
60417;BME280;46263;44.726;10.396;2022-12-18T04:13:48;101882.50;;;8.88;71.53
60417;BME280;46263;44.726;10.396;2022-12-18T04:16:13;101890.59;;;8.86;71.35
60417;BME280;46263;44.726;10.396;2022-12-18T04:18:39;101900.38;;;8.82;71.79
60417;BME280;46263;44.726;10.396;2022-12-18T04:21:04;101896.03;;;8.81;71.74
60417;BME280;46263;44.726;10.396;2022-12-18T04:23:29;101895.09;;;8.84;71.89
60417;BME280;46263;44.726;10.396;2022-12-18T04:25:55;101879.63;;;8.83;71.59
60417;BME280;46263;44.726;10.396;2022-12-18T04:28:21;101890.28;;;8.84;71.44
60417;BME280;46263;44.726;10.396;2022-12-18T04:30:46;101904.72;;;8.83;71.49
60417;BME280;46263;44.726;10.396;2022-12-18T04:33:12;101911.22;;;8.80;71.81
60417;BME280;46263;44.726;10.396;2022-12-18T04:35:39;101913.53;;;8.81;71.44
60417;BME280;46263;44.726;10.396;2022-12-18T04:38:06;101913.25;;;8.79;71.79
60417;BME280;46263;44.726;10.396;2022-12-18T04:40:32;101917.53;;;8.80;71.67
60417;BME280;46263;44.726;10.396;2022-12-18T04:43:00;101913.41;;;8.76;72.02
60417;BME280;46263;44.726;10.396;2022-12-18T04:45:25;101921.22;;;8.63;71.66
60417;BME280;46263;44.726;10.396;2022-12-18T04:47:51;101920.59;;;8.68;71.94
60417;BME280;46263;44.726;10.396;2022-12-18T04:50:16;101916.47;;;8.55;71.87
60417;BME280;46263;44.726;10.396;2022-12-18T04:52:42;101911.78;;;8.61;71.88
60417;BME280;46263;44.726;10.396;2022-12-18T04:55:07;101923.50;;;8.65;71.35
60417;BME280;46263;44.726;10.396;2022-12-18T04:57:33;101922.94;;;8.61;71.43
60417;BME280;46263;44.726;10.396;2022-12-18T04:59:58;101926.03;;;8.63;70.96
60417;BME280;46263;44.726;10.396;2022-12-18T05:02:24;101933.47;;;8.57;71.17
60417;BME280;46263;44.726;10.396;2022-12-18T05:04:49;101937.78;;;8.58;71.63
60417;BME280;46263;44.726;10.396;2022-12-18T05:07:14;101943.56;;;8.45;71.81
60417;BME280;46263;44.726;10.396;2022-12-18T05:09:40;101944.03;;;8.44;72.25
60417;BME280;46263;44.726;10.396;2022-12-18T05:12:05;101950.09;;;8.42;71.90
60417;BME280;46263;44.726;10.396;2022-12-18T05:14:31;101945.28;;;8.43;72.21
60417;BME280;46263;44.726;10.396;2022-12-18T05:16:56;101945.44;;;8.39;71.94
60417;BME280;46263;44.726;10.396;2022-12-18T05:19:22;101950.53;;;8.41;71.54
60417;BME280;46263;44.726;10.396;2022-12-18T05:21:47;101957.22;;;8.43;71.68
60417;BME280;46263;44.726;10.396;2022-12-18T05:24:13;101956.59;;;8.39;72.08
60417;BME280;46263;44.726;10.396;2022-12-18T05:26:38;101962.47;;;8.41;71.96
60417;BME280;46263;44.726;10.396;2022-12-18T05:29:04;101953.16;;;8.44;71.73
60417;BME280;46263;44.726;10.396;2022-12-18T05:31:29;101958.72;;;8.44;71.66
60417;BME280;46263;44.726;10.396;2022-12-18T05:33:55;101965.41;;;8.47;71.57
60417;BME280;46263;44.726;10.396;2022-12-18T05:36:20;101972.97;;;8.46;71.31
60417;BME280;46263;44.726;10.396;2022-12-18T05:38:45;101975.31;;;8.48;71.20
60417;BME280;46263;44.726;10.396;2022-12-18T05:41:11;101981.31;;;8.46;71.42
60417;BME280;46263;44.726;10.396;2022-12-18T05:43:37;101985.81;;;8.44;71.50
60417;BME280;46263;44.726;10.396;2022-12-18T05:46:14;101990.81;;;8.40;71.65
60417;BME280;46263;44.726;10.396;2022-12-18T05:48:41;102008.75;;;8.39;71.62
60417;BME280;46263;44.726;10.396;2022-12-18T05:51:09;102002.72;;;8.40;71.96
60417;BME280;46263;44.726;10.396;2022-12-18T05:53:36;102004.41;;;8.38;71.57
60417;BME280;46263;44.726;10.396;2022-12-18T05:56:07;101996.97;;;8.44;71.63
60417;BME280;46263;44.726;10.396;2022-12-18T05:58:33;101993.28;;;8.38;72.13
60417;BME280;46263;44.726;10.396;2022-12-18T06:01:07;102007.81;;;8.33;72.02
60417;BME280;46263;44.726;10.396;2022-12-18T06:03:32;102023.31;;;8.25;72.38
60417;BME280;46263;44.726;10.396;2022-12-18T06:05:58;102025.16;;;8.28;71.79
60417;BME280;46263;44.726;10.396;2022-12-18T06:08:23;102026.06;;;8.34;71.77
60417;BME280;46263;44.726;10.396;2022-12-18T06:10:50;102028.72;;;8.28;71.98
60417;BME280;46263;44.726;10.396;2022-12-18T06:13:17;102021.63;;;8.27;72.03
60417;BME280;46263;44.726;10.396;2022-12-18T06:15:43;102016.66;;;8.22;72.22
60417;BME280;46263;44.726;10.396;2022-12-18T06:18:08;102028.88;;;8.16;73.29
60417;BME280;46263;44.726;10.396;2022-12-18T06:20:34;102030.13;;;8.06;72.95
60417;BME280;46263;44.726;10.396;2022-12-18T06:23:01;102035.22;;;7.89;73.82
60417;BME280;46263;44.726;10.396;2022-12-18T06:25:27;102040.63;;;7.93;73.91
60417;BME280;46263;44.726;10.396;2022-12-18T06:27:52;102048.38;;;7.89;73.92
60417;BME280;46263;44.726;10.396;2022-12-18T06:30:18;102048.66;;;7.73;74.89
60417;BME280;46263;44.726;10.396;2022-12-18T06:32:43;102049.56;;;7.70;74.92
60417;BME280;46263;44.726;10.396;2022-12-18T06:35:09;102048.50;;;7.68;74.67
60417;BME280;46263;44.726;10.396;2022-12-18T06:37:35;102055.41;;;7.54;75.04
60417;BME280;46263;44.726;10.396;2022-12-18T06:40:01;102060.84;;;7.58;76.23
60417;BME280;46263;44.726;10.396;2022-12-18T06:42:26;102061.28;;;7.47;76.19
60417;BME280;46263;44.726;10.396;2022-12-18T06:44:52;102063.75;;;7.54;76.27
60417;BME280;46263;44.726;10.396;2022-12-18T06:47:18;102075.81;;;7.51;75.70
60417;BME280;46263;44.726;10.396;2022-12-18T06:49:43;102077.53;;;7.58;75.72
60417;BME280;46263;44.726;10.396;2022-12-18T06:52:09;102087.72;;;7.52;76.07
60417;BME280;46263;44.726;10.396;2022-12-18T06:54:34;102081.38;;;7.51;75.77
60417;BME280;46263;44.726;10.396;2022-12-18T06:57:00;102091.84;;;7.38;75.57
60417;BME280;46263;44.726;10.396;2022-12-18T06:59:25;102092.03;;;7.44;75.94
60417;BME280;46263;44.726;10.396;2022-12-18T07:01:50;102094.84;;;7.53;75.77
60417;BME280;46263;44.726;10.396;2022-12-18T07:04:17;102103.63;;;7.51;75.76
60417;BME280;46263;44.726;10.396;2022-12-18T07:06:42;102097.09;;;7.36;75.58
60417;BME280;46263;44.726;10.396;2022-12-18T07:09:08;102103.91;;;7.44;75.29
60417;BME280;46263;44.726;10.396;2022-12-18T07:11:33;102107.91;;;7.43;74.94
60417;BME280;46263;44.726;10.396;2022-12-18T07:13:59;102104.84;;;7.41;74.74
60417;BME280;46263;44.726;10.396;2022-12-18T07:16:25;102095.13;;;7.46;74.48
60417;BME280;46263;44.726;10.396;2022-12-18T07:18:55;102102.81;;;7.42;74.61
60417;BME280;46263;44.726;10.396;2022-12-18T07:21:21;102095.41;;;7.48;73.71
60417;BME280;46263;44.726;10.396;2022-12-18T07:23:47;102107.94;;;7.52;73.81
60417;BME280;46263;44.726;10.396;2022-12-18T07:26:14;102114.63;;;7.55;73.92
60417;BME280;46263;44.726;10.396;2022-12-18T07:28:41;102106.56;;;7.57;73.99
60417;BME280;46263;44.726;10.396;2022-12-18T07:31:12;102124.19;;;7.54;74.54
60417;BME280;46263;44.726;10.396;2022-12-18T07:33:38;102124.81;;;7.58;74.54
60417;BME280;46263;44.726;10.396;2022-12-18T07:36:05;102122.50;;;7.56;74.88
60417;BME280;46263;44.726;10.396;2022-12-18T07:38:32;102135.75;;;7.52;74.78
60417;BME280;46263;44.726;10.396;2022-12-18T07:41:01;102138.41;;;7.56;75.35
60417;BME280;46263;44.726;10.396;2022-12-18T07:43:27;102133.66;;;7.65;74.83
60417;BME280;46263;44.726;10.396;2022-12-18T07:45:52;102148.69;;;7.77;74.58
60417;BME280;46263;44.726;10.396;2022-12-18T07:48:18;102146.84;;;7.83;74.51
60417;BME280;46263;44.726;10.396;2022-12-18T07:50:43;102141.91;;;7.87;74.57
60417;BME280;46263;44.726;10.396;2022-12-18T07:53:09;102147.63;;;7.92;74.28
60417;BME280;46263;44.726;10.396;2022-12-18T07:55:34;102153.50;;;7.94;74.71
60417;BME280;46263;44.726;10.396;2022-12-18T07:58:02;102158.00;;;8.00;74.45
60417;BME280;46263;44.726;10.396;2022-12-18T08:00:28;102161.41;;;8.04;74.28
60417;BME280;46263;44.726;10.396;2022-12-18T08:02:53;102173.31;;;8.05;74.56
60417;BME280;46263;44.726;10.396;2022-12-18T08:05:19;102167.59;;;8.08;74.45
60417;BME280;46263;44.726;10.396;2022-12-18T08:07:46;102174.59;;;8.13;73.85
60417;BME280;46263;44.726;10.396;2022-12-18T08:10:11;102178.63;;;8.21;74.00
60417;BME280;46263;44.726;10.396;2022-12-18T08:12:37;102196.59;;;8.29;73.92
60417;BME280;46263;44.726;10.396;2022-12-18T08:15:03;102190.41;;;8.34;73.63
60417;BME280;46263;44.726;10.396;2022-12-18T08:17:28;102198.16;;;8.30;73.67
60417;BME280;46263;44.726;10.396;2022-12-18T08:19:54;102201.25;;;8.32;73.82
60417;BME280;46263;44.726;10.396;2022-12-18T08:22:19;102205.09;;;8.25;73.95
60417;BME280;46263;44.726;10.396;2022-12-18T08:24:45;102215.19;;;8.32;74.48
60417;BME280;46263;44.726;10.396;2022-12-18T08:27:10;102212.38;;;8.23;74.32
60417;BME280;46263;44.726;10.396;2022-12-18T08:29:36;102219.47;;;8.24;74.29
60417;BME280;46263;44.726;10.396;2022-12-18T08:32:01;102223.97;;;8.21;75.06
60417;BME280;46263;44.726;10.396;2022-12-18T08:34:27;102224.75;;;8.22;74.53
60417;BME280;46263;44.726;10.396;2022-12-18T08:36:52;102227.56;;;8.31;74.56
60417;BME280;46263;44.726;10.396;2022-12-18T08:39:18;102249.69;;;8.34;74.45
60417;BME280;46263;44.726;10.396;2022-12-18T08:41:43;102237.44;;;8.41;74.22
60417;BME280;46263;44.726;10.396;2022-12-18T08:44:28;102240.09;;;8.35;74.23
60417;BME280;46263;44.726;10.396;2022-12-18T08:47:04;102237.28;;;8.44;74.12
60417;BME280;46263;44.726;10.396;2022-12-18T08:49:30;102244.75;;;8.47;73.12
60417;BME280;46263;44.726;10.396;2022-12-18T08:51:56;102248.59;;;8.50;73.61
60417;BME280;46263;44.726;10.396;2022-12-18T08:54:25;102246.16;;;8.52;72.76
60417;BME280;46263;44.726;10.396;2022-12-18T08:56:51;102249.41;;;8.59;72.42
60417;BME280;46263;44.726;10.396;2022-12-18T08:59:17;102252.03;;;8.63;72.23
60417;BME280;46263;44.726;10.396;2022-12-18T09:01:43;102252.78;;;8.54;72.80
60417;BME280;46263;44.726;10.396;2022-12-18T09:04:12;102261.63;;;8.62;72.32
60417;BME280;46263;44.726;10.396;2022-12-18T09:06:37;102265.03;;;8.66;73.15
60417;BME280;46263;44.726;10.396;2022-12-18T09:09:04;102267.53;;;8.64;72.15
60417;BME280;46263;44.726;10.396;2022-12-18T09:11:30;102270.94;;;8.68;71.48
60417;BME280;46263;44.726;10.396;2022-12-18T09:13:57;102278.34;;;8.62;71.43
60417;BME280;46263;44.726;10.396;2022-12-18T09:16:24;102273.56;;;8.71;71.04
60417;BME280;46263;44.726;10.396;2022-12-18T09:18:50;102275.09;;;8.72;71.26
60417;BME280;46263;44.726;10.396;2022-12-18T09:21:20;102284.56;;;8.83;71.15
60417;BME280;46263;44.726;10.396;2022-12-18T09:23:53;102275.88;;;8.90;71.30
60417;BME280;46263;44.726;10.396;2022-12-18T09:26:20;102281.47;;;8.90;71.31
60417;BME280;46263;44.726;10.396;2022-12-18T09:28:46;102280.53;;;8.93;70.71
60417;BME280;46263;44.726;10.396;2022-12-18T09:31:15;102275.13;;;8.99;71.12
60417;BME280;46263;44.726;10.396;2022-12-18T09:33:41;102268.47;;;8.96;71.11
60417;BME280;46263;44.726;10.396;2022-12-18T09:36:09;102274.66;;;8.82;70.89
60417;BME280;46263;44.726;10.396;2022-12-18T09:38:35;102269.53;;;8.72;71.25
60417;BME280;46263;44.726;10.396;2022-12-18T09:43:49;102260.09;;;8.87;71.44
60417;BME280;46263;44.726;10.396;2022-12-18T09:46:33;102267.19;;;8.88;71.39
60417;BME280;46263;44.726;10.396;2022-12-18T09:49:03;102257.16;;;8.91;71.08
60417;BME280;46263;44.726;10.396;2022-12-18T09:51:43;102264.41;;;8.88;71.31
60417;BME280;46263;44.726;10.396;2022-12-18T09:54:21;102262.09;;;8.96;70.94
60417;BME280;46263;44.726;10.396;2022-12-18T09:56:47;102251.59;;;9.00;70.24
60417;BME280;46263;44.726;10.396;2022-12-18T09:59:23;102257.75;;;9.04;69.62
60417;BME280;46263;44.726;10.396;2022-12-18T10:01:49;102257.28;;;9.05;69.66
60417;BME280;46263;44.726;10.396;2022-12-18T10:04:15;102264.72;;;8.99;69.57
60417;BME280;46263;44.726;10.396;2022-12-18T10:06:55;102257.59;;;9.07;69.58
60417;BME280;46263;44.726;10.396;2022-12-18T10:09:33;102258.84;;;9.06;69.89
60417;BME280;46263;44.726;10.396;2022-12-18T10:17:28;102253.59;;;8.90;68.96
60417;BME280;46263;44.726;10.396;2022-12-18T10:20:27;102263.81;;;8.93;69.01
60417;BME280;46263;44.726;10.396;2022-12-18T10:23:03;102261.94;;;8.90;69.36
60417;BME280;46263;44.726;10.396;2022-12-18T10:26:05;102254.22;;;8.94;69.58
60417;BME280;46263;44.726;10.396;2022-12-18T10:28:34;102258.56;;;8.86;70.03
60417;BME280;46263;44.726;10.396;2022-12-18T10:31:02;102254.38;;;8.73;69.63
60417;BME280;46263;44.726;10.396;2022-12-18T10:33:31;102248.16;;;8.78;69.38
60417;BME280;46263;44.726;10.396;2022-12-18T10:35:58;102258.84;;;8.88;68.90
60417;BME280;46263;44.726;10.396;2022-12-18T10:48:31;102252.50;;;8.97;69.40
60417;BME280;46263;44.726;10.396;2022-12-18T10:50:57;102245.84;;;9.03;69.42
60417;BME280;46263;44.726;10.396;2022-12-18T10:53:28;102254.81;;;8.98;68.98
60417;BME280;46263;44.726;10.396;2022-12-18T10:55:56;102263.19;;;8.98;68.67
60417;BME280;46263;44.726;10.396;2022-12-18T10:58:29;102262.56;;;8.85;69.36
60417;BME280;46263;44.726;10.396;2022-12-18T11:01:02;102252.03;;;8.80;69.41
60417;BME280;46263;44.726;10.396;2022-12-18T11:06:22;102251.59;;;8.91;69.36
60417;BME280;46263;44.726;10.396;2022-12-18T11:09:20;102255.44;;;9.02;68.54
60417;BME280;46263;44.726;10.396;2022-12-18T11:11:54;102246.13;;;9.05;68.67
60417;BME280;46263;44.726;10.396;2022-12-18T11:14:28;102254.22;;;9.12;68.59
60417;BME280;46263;44.726;10.396;2022-12-18T11:16:55;102254.78;;;9.25;68.81
60417;BME280;46263;44.726;10.396;2022-12-18T11:19:40;102248.28;;;9.28;67.99
60417;BME280;46263;44.726;10.396;2022-12-18T11:22:25;102262.69;;;9.27;68.10
60417;BME280;46263;44.726;10.396;2022-12-18T11:25:05;102267.50;;;9.35;68.08
60417;BME280;46263;44.726;10.396;2022-12-18T11:27:32;102256.75;;;9.43;68.23
60417;BME280;46263;44.726;10.396;2022-12-18T11:32:44;102257.22;;;9.50;67.09
60417;BME280;46263;44.726;10.396;2022-12-18T11:37:49;102247.13;;;9.52;67.33
60417;BME280;46263;44.726;10.396;2022-12-18T11:40:20;102247.16;;;9.44;67.09
60417;BME280;46263;44.726;10.396;2022-12-18T11:42:56;102241.75;;;9.40;67.03
60417;BME280;46263;44.726;10.396;2022-12-18T11:45:27;102241.44;;;9.38;67.79
60417;BME280;46263;44.726;10.396;2022-12-18T11:48:23;102235.25;;;9.34;67.87
60417;BME280;46263;44.726;10.396;2022-12-18T11:50:55;102244.28;;;9.20;68.01
60417;BME280;46263;44.726;10.396;2022-12-18T11:53:22;102238.97;;;9.31;68.12
60417;BME280;46263;44.726;10.396;2022-12-18T11:59:02;102241.75;;;9.40;67.88
60417;BME280;46263;44.726;10.396;2022-12-18T12:09:44;102239.53;;;9.53;66.80
60417;BME280;46263;44.726;10.396;2022-12-18T12:12:27;102244.78;;;9.60;66.71
60417;BME280;46263;44.726;10.396;2022-12-18T12:26:38;102231.31;;;9.49;66.74
60417;BME280;46263;44.726;10.396;2022-12-18T12:34:49;102236.19;;;9.22;68.12
60417;BME280;46263;44.726;10.396;2022-12-18T12:40:07;102238.41;;;9.09;68.56
60417;BME280;46263;44.726;10.396;2022-12-18T12:42:46;102230.78;;;9.19;68.57
60417;BME280;46263;44.726;10.396;2022-12-18T12:45:42;102221.91;;;9.29;68.59
60417;BME280;46263;44.726;10.396;2022-12-18T12:49:02;102225.38;;;9.15;68.67
60417;BME280;46263;44.726;10.396;2022-12-18T12:51:08;102233.41;;;9.13;68.69
60417;BME280;46263;44.726;10.396;2022-12-18T12:53:37;102227.81;;;9.31;68.46
60417;BME280;46263;44.726;10.396;2022-12-18T12:56:04;102226.59;;;9.23;68.37
60417;BME280;46263;44.726;10.396;2022-12-18T12:58:42;102233.88;;;9.30;68.54
60417;BME280;46263;44.726;10.396;2022-12-18T13:04:07;102229.56;;;9.11;68.74
60417;BME280;46263;44.726;10.396;2022-12-18T13:07:04;102222.41;;;9.19;69.07
60417;BME280;46263;44.726;10.396;2022-12-18T13:09:30;102221.31;;;9.25;68.64
60417;BME280;46263;44.726;10.396;2022-12-18T13:12:02;102211.56;;;9.21;68.68
60417;BME280;46263;44.726;10.396;2022-12-18T13:14:47;102216.06;;;9.27;68.57
60417;BME280;46263;44.726;10.396;2022-12-18T13:19:52;102204.56;;;9.34;68.27
60417;BME280;46263;44.726;10.396;2022-12-18T13:22:38;102208.59;;;9.33;68.56
60417;BME280;46263;44.726;10.396;2022-12-18T13:25:28;102206.88;;;9.36;68.80
60417;BME280;46263;44.726;10.396;2022-12-18T13:40:58;102219.47;;;9.22;69.09
60417;BME280;46263;44.726;10.396;2022-12-18T13:43:28;102218.69;;;9.31;68.64
60417;BME280;46263;44.726;10.396;2022-12-18T13:46:01;102219.28;;;9.35;68.34
60417;BME280;46263;44.726;10.396;2022-12-18T13:48:28;102214.63;;;9.41;68.16
60417;BME280;46263;44.726;10.396;2022-12-18T13:51:08;102213.06;;;9.40;67.95
60417;BME280;46263;44.726;10.396;2022-12-18T13:56:32;102217.06;;;9.56;67.42
60417;BME280;46263;44.726;10.396;2022-12-18T13:59:15;102217.97;;;9.53;67.42
60417;BME280;46263;44.726;10.396;2022-12-18T14:01:43;102207.41;;;9.57;67.59
60417;BME280;46263;44.726;10.396;2022-12-18T14:04:32;102208.50;;;9.60;67.36
60417;BME280;46263;44.726;10.396;2022-12-18T14:07:01;102217.38;;;9.49;67.64
60417;BME280;46263;44.726;10.396;2022-12-18T14:09:37;102220.91;;;9.59;67.63
60417;BME280;46263;44.726;10.396;2022-12-18T14:12:03;102216.72;;;9.63;67.52
60417;BME280;46263;44.726;10.396;2022-12-18T14:14:49;102216.53;;;9.67;67.46
60417;BME280;46263;44.726;10.396;2022-12-18T14:17:16;102216.06;;;9.68;67.32
60417;BME280;46263;44.726;10.396;2022-12-18T14:19:47;102217.63;;;9.69;67.38
60417;BME280;46263;44.726;10.396;2022-12-18T14:22:33;102217.78;;;9.66;67.38
60417;BME280;46263;44.726;10.396;2022-12-18T14:30:36;102207.38;;;9.66;67.60
60417;BME280;46263;44.726;10.396;2022-12-18T14:35:33;102197.13;;;9.72;67.64
60417;BME280;46263;44.726;10.396;2022-12-18T14:38:11;102204.09;;;9.77;67.44
60417;BME280;46263;44.726;10.396;2022-12-18T14:40:43;102209.41;;;9.66;67.49
60417;BME280;46263;44.726;10.396;2022-12-18T14:43:10;102208.16;;;9.67;67.61
60417;BME280;46263;44.726;10.396;2022-12-18T14:45:41;102202.91;;;9.69;67.44
60417;BME280;46263;44.726;10.396;2022-12-18T14:48:11;102210.66;;;9.65;67.41
60417;BME280;46263;44.726;10.396;2022-12-18T14:50:39;102201.44;;;9.73;67.47
60417;BME280;46263;44.726;10.396;2022-12-18T14:53:18;102202.53;;;9.76;67.36